sensor_id;sensor_type;location;lat;lon;timestamp;pressure;altitude;pressure_sealevel;temperature;humidity
30339;BME280;795;49.296;11.348;2022-12-01T00:01:22;96861.22;;;1.89;100.00
30339;BME280;795;49.296;11.348;2022-12-01T00:03:49;96857.44;;;1.93;100.00
30339;BME280;795;49.296;11.348;2022-12-01T00:06:20;96860.91;;;1.94;100.00
30339;BME280;795;49.296;11.348;2022-12-01T00:08:50;96852.44;;;1.89;100.00
30339;BME280;795;49.296;11.348;2022-12-01T00:11:38;96859.88;;;1.84;100.00
30339;BME280;795;49.296;11.348;2022-12-01T00:14:05;96857.09;;;1.85;100.00
30339;BME280;795;49.296;11.348;2022-12-01T00:16:33;96848.22;;;1.74;100.00
30339;BME280;795;49.296;11.348;2022-12-01T00:19:00;96853.59;;;1.85;100.00
30339;BME280;795;49.296;11.348;2022-12-01T00:21:27;96848.44;;;1.83;100.00
30339;BME280;795;49.296;11.348;2022-12-01T00:23:56;96849.47;;;1.81;100.00
30339;BME280;795;49.296;11.348;2022-12-01T00:26:25;96851.47;;;1.77;100.00
30339;BME280;795;49.296;11.348;2022-12-01T00:28:58;96850.22;;;1.83;100.00
30339;BME280;795;49.296;11.348;2022-12-01T00:31:30;96852.13;;;1.81;100.00
30339;BME280;795;49.296;11.348;2022-12-01T00:34:02;96852.00;;;1.82;100.00
30339;BME280;795;49.296;11.348;2022-12-01T00:36:36;96841.03;;;1.88;100.00
30339;BME280;795;49.296;11.348;2022-12-01T00:39:03;96847.66;;;1.94;100.00
30339;BME280;795;49.296;11.348;2022-12-01T00:41:30;96841.03;;;2.01;100.00
30339;BME280;795;49.296;11.348;2022-12-01T00:43:57;96848.19;;;1.99;100.00
30339;BME280;795;49.296;11.348;2022-12-01T00:46:24;96848.66;;;2.06;100.00
30339;BME280;795;49.296;11.348;2022-12-01T00:48:51;96850.53;;;2.03;100.00
30339;BME280;795;49.296;11.348;2022-12-01T00:51:18;96842.59;;;2.03;100.00
30339;BME280;795;49.296;11.348;2022-12-01T00:53:45;96843.44;;;2.04;100.00
30339;BME280;795;49.296;11.348;2022-12-01T00:56:12;96847.13;;;2.01;100.00
30339;BME280;795;49.296;11.348;2022-12-01T00:58:38;96847.06;;;2.03;100.00
30339;BME280;795;49.296;11.348;2022-12-01T01:01:06;96852.34;;;2.03;100.00
30339;BME280;795;49.296;11.348;2022-12-01T01:03:33;96857.53;;;2.05;100.00
30339;BME280;795;49.296;11.348;2022-12-01T01:06:11;96863.25;;;1.98;100.00
30339;BME280;795;49.296;11.348;2022-12-01T01:08:39;96862.41;;;1.98;100.00
30339;BME280;795;49.296;11.348;2022-12-01T01:11:07;96857.00;;;1.99;100.00
30339;BME280;795;49.296;11.348;2022-12-01T01:13:36;96860.91;;;2.07;100.00
30339;BME280;795;49.296;11.348;2022-12-01T01:16:20;96864.53;;;2.06;100.00
30339;BME280;795;49.296;11.348;2022-12-01T01:18:48;96856.47;;;2.07;100.00
30339;BME280;795;49.296;11.348;2022-12-01T01:21:19;96857.13;;;2.11;100.00
30339;BME280;795;49.296;11.348;2022-12-01T01:23:50;96859.53;;;2.14;100.00
30339;BME280;795;49.296;11.348;2022-12-01T01:26:25;96868.78;;;2.08;100.00
30339;BME280;795;49.296;11.348;2022-12-01T01:28:58;96868.84;;;2.07;100.00
30339;BME280;795;49.296;11.348;2022-12-01T01:31:29;96873.94;;;2.10;100.00
30339;BME280;795;49.296;11.348;2022-12-01T01:33:57;96870.56;;;2.08;100.00
30339;BME280;795;49.296;11.348;2022-12-01T01:36:26;96870.44;;;2.09;100.00
30339;BME280;795;49.296;11.348;2022-12-01T01:38:53;96887.31;;;2.08;100.00
30339;BME280;795;49.296;11.348;2022-12-01T01:41:22;96878.19;;;2.12;100.00
30339;BME280;795;49.296;11.348;2022-12-01T01:43:55;96873.41;;;2.17;100.00
30339;BME280;795;49.296;11.348;2022-12-01T01:46:31;96879.97;;;2.12;100.00
30339;BME280;795;49.296;11.348;2022-12-01T01:49:10;96877.66;;;2.20;100.00
30339;BME280;795;49.296;11.348;2022-12-01T01:51:48;96881.16;;;2.20;100.00
30339;BME280;795;49.296;11.348;2022-12-01T01:54:36;96878.41;;;2.22;100.00
30339;BME280;795;49.296;11.348;2022-12-01T01:57:08;96870.44;;;2.22;100.00
30339;BME280;795;49.296;11.348;2022-12-01T01:59:52;96862.06;;;2.28;100.00
30339;BME280;795;49.296;11.348;2022-12-01T02:02:20;96866.34;;;2.18;100.00
30339;BME280;795;49.296;11.348;2022-12-01T02:04:59;96880.41;;;2.18;100.00
30339;BME280;795;49.296;11.348;2022-12-01T02:07:26;96878.19;;;2.12;100.00
30339;BME280;795;49.296;11.348;2022-12-01T02:09:54;96867.72;;;2.11;100.00
30339;BME280;795;49.296;11.348;2022-12-01T02:13:21;96859.97;;;2.08;100.00
30339;BME280;795;49.296;11.348;2022-12-01T02:19:44;96858.38;;;2.05;100.00
30339;BME280;795;49.296;11.348;2022-12-01T02:22:51;96857.75;;;2.14;100.00
30339;BME280;795;49.296;11.348;2022-12-01T02:26:14;96846.81;;;2.06;100.00
30339;BME280;795;49.296;11.348;2022-12-01T02:31:57;96843.22;;;2.20;100.00
30339;BME280;795;49.296;11.348;2022-12-01T02:34:53;96843.31;;;2.18;100.00
30339;BME280;795;49.296;11.348;2022-12-01T02:38:10;96849.34;;;2.33;100.00
30339;BME280;795;49.296;11.348;2022-12-01T02:40:53;96846.16;;;2.28;100.00
30339;BME280;795;49.296;11.348;2022-12-01T02:47:13;96846.28;;;2.26;100.00
30339;BME280;795;49.296;11.348;2022-12-01T02:49:48;96849.38;;;2.08;100.00
30339;BME280;795;49.296;11.348;2022-12-01T02:52:18;96851.63;;;2.01;100.00
30339;BME280;795;49.296;11.348;2022-12-01T02:54:47;96849.59;;;1.92;100.00
30339;BME280;795;49.296;11.348;2022-12-01T02:57:15;96852.13;;;2.06;100.00
30339;BME280;795;49.296;11.348;2022-12-01T02:59:51;96846.41;;;1.99;100.00
30339;BME280;795;49.296;11.348;2022-12-01T03:02:57;96843.88;;;1.98;100.00
30339;BME280;795;49.296;11.348;2022-12-01T03:06:18;96850.66;;;2.02;100.00
30339;BME280;795;49.296;11.348;2022-12-01T03:09:20;96853.16;;;2.03;100.00
30339;BME280;795;49.296;11.348;2022-12-01T03:15:09;96846.19;;;2.03;100.00
30339;BME280;795;49.296;11.348;2022-12-01T03:18:13;96850.31;;;2.07;100.00
30339;BME280;795;49.296;11.348;2022-12-01T03:24:04;96839.63;;;1.95;100.00
30339;BME280;795;49.296;11.348;2022-12-01T03:26:36;96841.44;;;2.08;100.00
30339;BME280;795;49.296;11.348;2022-12-01T03:29:15;96838.59;;;2.11;100.00
30339;BME280;795;49.296;11.348;2022-12-01T03:32:04;96836.88;;;2.10;100.00
30339;BME280;795;49.296;11.348;2022-12-01T03:35:02;96837.00;;;1.95;100.00
30339;BME280;795;49.296;11.348;2022-12-01T03:37:49;96829.91;;;1.96;100.00
30339;BME280;795;49.296;11.348;2022-12-01T03:40:23;96834.13;;;1.86;100.00
30339;BME280;795;49.296;11.348;2022-12-01T03:43:12;96831.16;;;1.78;100.00
30339;BME280;795;49.296;11.348;2022-12-01T03:46:14;96837.94;;;1.69;100.00
30339;BME280;795;49.296;11.348;2022-12-01T03:48:44;96837.63;;;1.74;100.00
30339;BME280;795;49.296;11.348;2022-12-01T03:52:15;96844.50;;;1.64;100.00
30339;BME280;795;49.296;11.348;2022-12-01T03:58:32;96846.16;;;1.65;100.00
30339;BME280;795;49.296;11.348;2022-12-01T04:01:04;96849.00;;;1.49;100.00
30339;BME280;795;49.296;11.348;2022-12-01T04:03:33;96844.34;;;1.53;100.00
30339;BME280;795;49.296;11.348;2022-12-01T04:06:00;96837.81;;;1.58;100.00
30339;BME280;795;49.296;11.348;2022-12-01T04:08:27;96840.88;;;1.52;100.00
30339;BME280;795;49.296;11.348;2022-12-01T04:10:56;96841.09;;;1.49;100.00
30339;BME280;795;49.296;11.348;2022-12-01T04:13:23;96838.09;;;1.41;100.00
30339;BME280;795;49.296;11.348;2022-12-01T04:15:55;96842.53;;;1.41;100.00
30339;BME280;795;49.296;11.348;2022-12-01T04:18:22;96846.09;;;1.27;100.00
30339;BME280;795;49.296;11.348;2022-12-01T04:20:49;96845.69;;;1.20;100.00
30339;BME280;795;49.296;11.348;2022-12-01T04:23:16;96850.34;;;1.29;100.00
30339;BME280;795;49.296;11.348;2022-12-01T04:26:04;96851.00;;;1.46;100.00
30339;BME280;795;49.296;11.348;2022-12-01T04:28:31;96853.25;;;1.52;100.00
30339;BME280;795;49.296;11.348;2022-12-01T04:30:58;96844.69;;;1.61;100.00
30339;BME280;795;49.296;11.348;2022-12-01T04:33:25;96843.22;;;1.69;100.00
30339;BME280;795;49.296;11.348;2022-12-01T04:35:58;96840.88;;;1.77;100.00
30339;BME280;795;49.296;11.348;2022-12-01T04:38:26;96834.31;;;1.70;100.00
30339;BME280;795;49.296;11.348;2022-12-01T04:40:57;96837.50;;;1.75;100.00
30339;BME280;795;49.296;11.348;2022-12-01T04:43:24;96827.78;;;1.76;100.00
30339;BME280;795;49.296;11.348;2022-12-01T04:45:51;96834.22;;;1.84;100.00
30339;BME280;795;49.296;11.348;2022-12-01T04:48:17;96824.91;;;1.91;100.00
30339;BME280;795;49.296;11.348;2022-12-01T04:50:48;96822.03;;;1.94;100.00
30339;BME280;795;49.296;11.348;2022-12-01T04:53:15;96824.16;;;2.02;100.00
30339;BME280;795;49.296;11.348;2022-12-01T04:55:41;96824.69;;;1.94;100.00
30339;BME280;795;49.296;11.348;2022-12-01T04:58:08;96821.94;;;2.09;100.00
30339;BME280;795;49.296;11.348;2022-12-01T05:00:36;96825.44;;;2.09;100.00
30339;BME280;795;49.296;11.348;2022-12-01T05:03:04;96813.16;;;2.08;100.00
30339;BME280;795;49.296;11.348;2022-12-01T05:05:34;96818.88;;;2.02;100.00
30339;BME280;795;49.296;11.348;2022-12-01T05:08:01;96816.97;;;2.04;100.00
30339;BME280;795;49.296;11.348;2022-12-01T05:10:28;96814.22;;;2.06;100.00
30339;BME280;795;49.296;11.348;2022-12-01T05:12:55;96814.22;;;2.06;100.00
30339;BME280;795;49.296;11.348;2022-12-01T05:15:24;96818.25;;;1.98;100.00
30339;BME280;795;49.296;11.348;2022-12-01T05:17:50;96822.91;;;2.08;100.00
30339;BME280;795;49.296;11.348;2022-12-01T05:20:24;96823.97;;;2.05;100.00
30339;BME280;795;49.296;11.348;2022-12-01T05:23:10;96832.44;;;2.10;100.00
30339;BME280;795;49.296;11.348;2022-12-01T05:25:42;96829.88;;;2.21;100.00
30339;BME280;795;49.296;11.348;2022-12-01T05:28:09;96831.47;;;2.11;100.00
30339;BME280;795;49.296;11.348;2022-12-01T05:30:36;96836.22;;;2.19;100.00
30339;BME280;795;49.296;11.348;2022-12-01T05:33:03;96824.56;;;2.21;100.00
30339;BME280;795;49.296;11.348;2022-12-01T05:35:33;96831.91;;;2.18;100.00
30339;BME280;795;49.296;11.348;2022-12-01T05:38:00;96829.88;;;2.09;100.00
30339;BME280;795;49.296;11.348;2022-12-01T05:40:35;96825.56;;;2.08;100.00
30339;BME280;795;49.296;11.348;2022-12-01T05:43:02;96826.69;;;2.03;100.00
30339;BME280;795;49.296;11.348;2022-12-01T05:45:30;96832.09;;;2.15;100.00
30339;BME280;795;49.296;11.348;2022-12-01T05:48:00;96821.41;;;2.16;100.00
30339;BME280;795;49.296;11.348;2022-12-01T05:50:29;96827.75;;;2.14;100.00
30339;BME280;795;49.296;11.348;2022-12-01T05:52:56;96826.28;;;2.22;100.00
30339;BME280;795;49.296;11.348;2022-12-01T05:55:23;96833.69;;;2.17;100.00
30339;BME280;795;49.296;11.348;2022-12-01T05:57:50;96831.16;;;2.03;100.00
30339;BME280;795;49.296;11.348;2022-12-01T06:00:18;96827.00;;;2.12;100.00
30339;BME280;795;49.296;11.348;2022-12-01T06:02:45;96825.44;;;2.09;100.00
30339;BME280;795;49.296;11.348;2022-12-01T06:05:12;96828.19;;;2.20;100.00
30339;BME280;795;49.296;11.348;2022-12-01T06:07:38;96824.56;;;2.21;100.00
30339;BME280;795;49.296;11.348;2022-12-01T06:10:08;96830.84;;;2.20;100.00
30339;BME280;795;49.296;11.348;2022-12-01T06:12:36;96821.16;;;2.32;100.00
30339;BME280;795;49.296;11.348;2022-12-01T06:15:05;96829.78;;;2.23;100.00
30339;BME280;795;49.296;11.348;2022-12-01T06:17:33;96831.44;;;2.24;100.00
30339;BME280;795;49.296;11.348;2022-12-01T06:20:08;96836.09;;;2.33;100.00
30339;BME280;795;49.296;11.348;2022-12-01T06:22:35;96834.22;;;2.22;100.00
30339;BME280;795;49.296;11.348;2022-12-01T06:25:03;96834.22;;;2.35;100.00
30339;BME280;795;49.296;11.348;2022-12-01T06:27:30;96827.19;;;2.46;100.00
30339;BME280;795;49.296;11.348;2022-12-01T06:29:57;96825.41;;;2.34;100.00
30339;BME280;795;49.296;11.348;2022-12-01T06:32:24;96826.53;;;2.43;100.00
30339;BME280;795;49.296;11.348;2022-12-01T06:34:51;96832.19;;;2.26;100.00
30339;BME280;795;49.296;11.348;2022-12-01T06:37:18;96829.84;;;2.34;100.00
30339;BME280;795;49.296;11.348;2022-12-01T06:39:45;96835.81;;;2.25;100.00
30339;BME280;795;49.296;11.348;2022-12-01T06:42:12;96832.84;;;2.29;100.00
30339;BME280;795;49.296;11.348;2022-12-01T06:44:38;96838.78;;;2.20;100.00
30339;BME280;795;49.296;11.348;2022-12-01T06:47:05;96834.75;;;2.27;100.00
30339;BME280;795;49.296;11.348;2022-12-01T06:49:33;96828.72;;;2.25;100.00
30339;BME280;795;49.296;11.348;2022-12-01T06:52:01;96829.00;;;2.21;100.00
30339;BME280;795;49.296;11.348;2022-12-01T06:54:28;96836.13;;;2.08;100.00
30339;BME280;795;49.296;11.348;2022-12-01T06:56:55;96838.59;;;2.11;100.00
30339;BME280;795;49.296;11.348;2022-12-01T06:59:22;96840.91;;;2.15;100.00
30339;BME280;795;49.296;11.348;2022-12-01T07:01:49;96847.03;;;2.16;100.00
30339;BME280;795;49.296;11.348;2022-12-01T07:04:16;96845.56;;;2.12;100.00
30339;BME280;795;49.296;11.348;2022-12-01T07:06:43;96857.75;;;2.14;100.00
30339;BME280;795;49.296;11.348;2022-12-01T07:09:10;96850.53;;;2.03;100.00
30339;BME280;795;49.296;11.348;2022-12-01T07:11:37;96842.28;;;2.08;100.00
30339;BME280;795;49.296;11.348;2022-12-01T07:14:04;96849.91;;;2.13;100.00
30339;BME280;795;49.296;11.348;2022-12-01T07:16:31;96845.88;;;2.20;100.00
30339;BME280;795;49.296;11.348;2022-12-01T07:18:58;96855.31;;;1.98;100.00
30339;BME280;795;49.296;11.348;2022-12-01T07:21:25;96850.44;;;1.92;100.00
30339;BME280;795;49.296;11.348;2022-12-01T07:23:53;96853.28;;;2.02;100.00
30339;BME280;795;49.296;11.348;2022-12-01T07:26:21;96852.88;;;2.08;100.00
30339;BME280;795;49.296;11.348;2022-12-01T07:28:48;96857.84;;;2.25;100.00
30339;BME280;795;49.296;11.348;2022-12-01T07:31:18;96857.41;;;2.31;100.00
30339;BME280;795;49.296;11.348;2022-12-01T07:33:45;96860.38;;;2.27;100.00
30339;BME280;795;49.296;11.348;2022-12-01T07:36:13;96860.91;;;2.32;100.00
30339;BME280;795;49.296;11.348;2022-12-01T07:38:41;96865.03;;;2.36;100.00
30339;BME280;795;49.296;11.348;2022-12-01T07:41:13;96867.03;;;2.45;100.00
30339;BME280;795;49.296;11.348;2022-12-01T07:43:40;96860.25;;;2.41;100.00
30339;BME280;795;49.296;11.348;2022-12-01T07:46:20;96864.34;;;2.57;100.00
30339;BME280;795;49.296;11.348;2022-12-01T07:48:52;96871.44;;;2.57;100.00
30339;BME280;795;49.296;11.348;2022-12-01T07:51:21;96868.16;;;2.66;100.00
30339;BME280;795;49.296;11.348;2022-12-01T07:53:51;96865.78;;;2.74;100.00
30339;BME280;795;49.296;11.348;2022-12-01T07:56:21;96863.13;;;2.74;100.00
30339;BME280;795;49.296;11.348;2022-12-01T07:58:49;96870.03;;;2.77;100.00
30339;BME280;795;49.296;11.348;2022-12-01T08:01:21;96863.31;;;2.84;100.00
30339;BME280;795;49.296;11.348;2022-12-01T08:03:52;96862.25;;;2.86;100.00
30339;BME280;795;49.296;11.348;2022-12-01T08:06:21;96862.34;;;2.97;100.00
30339;BME280;795;49.296;11.348;2022-12-01T08:08:49;96861.28;;;3.00;100.00
30339;BME280;795;49.296;11.348;2022-12-01T08:11:22;96865.91;;;3.09;100.00
30339;BME280;795;49.296;11.348;2022-12-01T08:13:51;96857.66;;;3.24;100.00
30339;BME280;795;49.296;11.348;2022-12-01T08:16:21;96873.34;;;3.27;100.00
30339;BME280;795;49.296;11.348;2022-12-01T08:18:49;96873.78;;;3.45;100.00
30339;BME280;795;49.296;11.348;2022-12-01T08:21:20;96871.94;;;3.34;100.00
30339;BME280;795;49.296;11.348;2022-12-01T08:23:53;96872.56;;;3.38;100.00
30339;BME280;795;49.296;11.348;2022-12-01T08:26:23;96868.84;;;3.41;100.00
30339;BME280;795;49.296;11.348;2022-12-01T08:28:50;96869.16;;;3.60;100.00
30339;BME280;795;49.296;11.348;2022-12-01T08:31:28;96867.56;;;3.57;100.00
30339;BME280;795;49.296;11.348;2022-12-01T08:33:56;96870.75;;;3.73;100.00
30339;BME280;795;49.296;11.348;2022-12-01T08:36:25;96875.25;;;3.84;100.00
30339;BME280;795;49.296;11.348;2022-12-01T08:38:54;96873.38;;;3.97;100.00
30339;BME280;795;49.296;11.348;2022-12-01T08:41:23;96870.72;;;4.08;100.00
30339;BME280;795;49.296;11.348;2022-12-01T08:43:51;96861.94;;;4.19;100.00
30339;BME280;795;49.296;11.348;2022-12-01T08:46:32;96859.41;;;4.28;100.00
30339;BME280;795;49.296;11.348;2022-12-01T08:49:03;96859.41;;;4.28;100.00
30339;BME280;795;49.296;11.348;2022-12-01T08:51:31;96853.81;;;4.31;100.00
30339;BME280;795;49.296;11.348;2022-12-01T08:53:59;96864.22;;;4.23;100.00
30339;BME280;795;49.296;11.348;2022-12-01T08:56:38;96863.25;;;4.24;100.00
30339;BME280;795;49.296;11.348;2022-12-01T08:59:06;96855.06;;;4.38;100.00
30339;BME280;795;49.296;11.348;2022-12-01T09:04:02;96866.78;;;4.47;100.00
30339;BME280;795;49.296;11.348;2022-12-01T09:06:38;96869.31;;;4.59;100.00
30339;BME280;795;49.296;11.348;2022-12-01T09:09:15;96872.34;;;4.66;100.00
30339;BME280;795;49.296;11.348;2022-12-01T09:11:43;96869.41;;;4.80;100.00
30339;BME280;795;49.296;11.348;2022-12-01T09:14:13;96872.03;;;5.13;100.00
30339;BME280;795;49.296;11.348;2022-12-01T09:16:43;96871.94;;;5.35;100.00
30339;BME280;795;49.296;11.348;2022-12-01T09:19:12;96875.53;;;5.57;100.00
30339;BME280;795;49.296;11.348;2022-12-01T09:21:40;96872.75;;;5.79;100.00
30339;BME280;795;49.296;11.348;2022-12-01T09:24:12;96877.56;;;6.17;100.00
30339;BME280;795;49.296;11.348;2022-12-01T09:26:41;96875.72;;;6.38;100.00
30339;BME280;795;49.296;11.348;2022-12-01T09:29:13;96873.59;;;6.32;96.73
30339;BME280;795;49.296;11.348;2022-12-01T09:31:41;96870.47;;;5.85;96.46
30339;BME280;795;49.296;11.348;2022-12-01T09:34:19;96885.56;;;5.64;99.22
30339;BME280;795;49.296;11.348;2022-12-01T09:36:47;96887.56;;;6.03;99.59
30339;BME280;795;49.296;11.348;2022-12-01T09:39:19;96876.84;;;6.15;97.94
30339;BME280;795;49.296;11.348;2022-12-01T09:41:56;96879.38;;;6.16;97.70
30339;BME280;795;49.296;11.348;2022-12-01T09:44:52;96876.41;;;6.40;96.31
30339;BME280;795;49.296;11.348;2022-12-01T09:47:31;96874.25;;;6.54;94.70
30339;BME280;795;49.296;11.348;2022-12-01T09:50:21;96871.41;;;6.77;92.72
30339;BME280;795;49.296;11.348;2022-12-01T09:53:01;96861.06;;;6.93;91.79
30339;BME280;795;49.296;11.348;2022-12-01T09:55:31;96854.97;;;7.11;88.67
30339;BME280;795;49.296;11.348;2022-12-01T09:58:03;96856.84;;;7.59;88.70
30339;BME280;795;49.296;11.348;2022-12-01T10:00:41;96857.69;;;7.97;85.33
30339;BME280;795;49.296;11.348;2022-12-01T10:03:38;96856.56;;;8.00;83.74
30339;BME280;795;49.296;11.348;2022-12-01T10:06:19;96859.41;;;7.60;84.02
30339;BME280;795;49.296;11.348;2022-12-01T10:09:43;96860.09;;;7.91;82.66
30339;BME280;795;49.296;11.348;2022-12-01T10:12:19;96856.00;;;7.96;82.21
30339;BME280;795;49.296;11.348;2022-12-01T10:14:49;96854.16;;;8.72;81.92
30339;BME280;795;49.296;11.348;2022-12-01T10:17:50;96852.06;;;9.48;76.30
30339;BME280;795;49.296;11.348;2022-12-01T10:20:41;96859.22;;;8.75;75.87
30339;BME280;795;49.296;11.348;2022-12-01T10:30:17;96839.06;;;7.19;86.78
30339;BME280;795;49.296;11.348;2022-12-01T10:33:13;96845.16;;;7.21;85.39
30339;BME280;795;49.296;11.348;2022-12-01T10:35:43;96832.75;;;7.11;86.29
30339;BME280;795;49.296;11.348;2022-12-01T10:38:33;96838.53;;;7.35;86.35
30339;BME280;795;49.296;11.348;2022-12-01T10:41:04;96839.25;;;7.37;84.82
30339;BME280;795;49.296;11.348;2022-12-01T10:43:50;96830.69;;;7.53;83.84
30339;BME280;795;49.296;11.348;2022-12-01T10:46:28;96837.41;;;7.18;83.53
30339;BME280;795;49.296;11.348;2022-12-01T10:48:59;96837.56;;;7.17;85.50
30339;BME280;795;49.296;11.348;2022-12-01T10:51:52;96833.91;;;7.27;84.59
30339;BME280;795;49.296;11.348;2022-12-01T10:54:22;96840.34;;;7.25;85.05
30339;BME280;795;49.296;11.348;2022-12-01T10:56:55;96827.19;;;7.62;83.62
30339;BME280;795;49.296;11.348;2022-12-01T11:02:20;96826.13;;;8.20;82.01
30339;BME280;795;49.296;11.348;2022-12-01T11:05:04;96833.63;;;7.78;79.91
30339;BME280;795;49.296;11.348;2022-12-01T11:07:41;96822.09;;;7.87;81.45
30339;BME280;795;49.296;11.348;2022-12-01T11:10:22;96816.69;;;8.35;80.24
30339;BME280;795;49.296;11.348;2022-12-01T11:13:20;96823.03;;;8.34;79.70
30339;BME280;795;49.296;11.348;2022-12-01T11:15:56;96825.72;;;8.15;80.40
30339;BME280;795;49.296;11.348;2022-12-01T11:18:32;96812.50;;;7.94;80.56
30339;BME280;795;49.296;11.348;2022-12-01T11:21:26;96818.00;;;7.93;81.57
30339;BME280;795;49.296;11.348;2022-12-01T11:23:55;96812.50;;;8.14;82.25
30339;BME280;795;49.296;11.348;2022-12-01T11:26:33;96814.44;;;8.21;81.58
30339;BME280;795;49.296;11.348;2022-12-01T11:29:19;96811.09;;;8.10;80.23
30339;BME280;795;49.296;11.348;2022-12-01T11:31:50;96810.22;;;8.19;80.01
30339;BME280;795;49.296;11.348;2022-12-01T11:34:26;96807.50;;;9.64;73.38
30339;BME280;795;49.296;11.348;2022-12-01T11:37:01;96810.19;;;10.77;67.49
30339;BME280;795;49.296;11.348;2022-12-01T11:39:36;96813.03;;;11.75;65.19
30339;BME280;795;49.296;11.348;2022-12-01T11:42:27;96811.56;;;13.08;60.33
30339;BME280;795;49.296;11.348;2022-12-01T11:50:43;96803.56;;;11.63;62.76
30339;BME280;795;49.296;11.348;2022-12-01T11:53:37;96811.59;;;11.39;63.12
30339;BME280;795;49.296;11.348;2022-12-01T11:56:22;96817.38;;;10.68;65.82
30339;BME280;795;49.296;11.348;2022-12-01T11:59:05;96802.94;;;10.18;68.15
30339;BME280;795;49.296;11.348;2022-12-01T12:11:32;96801.47;;;8.36;77.60
30339;BME280;795;49.296;11.348;2022-12-01T12:17:58;96807.19;;;7.66;80.50
30339;BME280;795;49.296;11.348;2022-12-01T12:21:22;96796.22;;;7.69;83.84
30339;BME280;795;49.296;11.348;2022-12-01T12:31:27;96784.13;;;7.74;83.19
30339;BME280;795;49.296;11.348;2022-12-01T12:38:47;96786.94;;;7.06;88.55
30339;BME280;795;49.296;11.348;2022-12-01T12:44:47;96778.44;;;6.72;92.59
30339;BME280;795;49.296;11.348;2022-12-01T12:47:57;96780.94;;;6.74;92.95
30339;BME280;795;49.296;11.348;2022-12-01T12:51:18;96773.28;;;6.80;94.03
30339;BME280;795;49.296;11.348;2022-12-01T12:54:26;96775.09;;;6.80;93.99
30339;BME280;795;49.296;11.348;2022-12-01T12:57:17;96774.06;;;6.71;94.60
30339;BME280;795;49.296;11.348;2022-12-01T12:59:58;96779.38;;;6.61;93.44
30339;BME280;795;49.296;11.348;2022-12-01T13:02:48;96779.75;;;6.47;96.15
30339;BME280;795;49.296;11.348;2022-12-01T13:08:44;96775.22;;;6.38;96.59
30339;BME280;795;49.296;11.348;2022-12-01T13:11:28;96770.38;;;6.23;97.19
30339;BME280;795;49.296;11.348;2022-12-01T13:14:27;96769.16;;;6.27;97.06
30339;BME280;795;49.296;11.348;2022-12-01T13:17:27;96759.91;;;6.31;97.83
30339;BME280;795;49.296;11.348;2022-12-01T13:19:56;96763.50;;;6.20;97.21
30339;BME280;795;49.296;11.348;2022-12-01T13:22:32;96757.41;;;6.09;98.29
30339;BME280;795;49.296;11.348;2022-12-01T13:25:02;96753.78;;;6.10;99.05
30339;BME280;795;49.296;11.348;2022-12-01T13:27:40;96755.34;;;6.12;99.32
30339;BME280;795;49.296;11.348;2022-12-01T13:30:25;96754.78;;;6.18;100.00
30339;BME280;795;49.296;11.348;2022-12-01T13:33:06;96755.41;;;6.31;99.66
30339;BME280;795;49.296;11.348;2022-12-01T13:35:37;96758.25;;;6.39;98.76
30339;BME280;795;49.296;11.348;2022-12-01T13:38:33;96757.56;;;6.47;98.83
30339;BME280;795;49.296;11.348;2022-12-01T13:44:39;96765.97;;;6.42;97.37
30339;BME280;795;49.296;11.348;2022-12-01T13:49:47;96764.06;;;6.54;97.44
30339;BME280;795;49.296;11.348;2022-12-01T14:00:39;96754.28;;;6.24;98.85
30339;BME280;795;49.296;11.348;2022-12-01T14:08:29;96756.59;;;6.18;98.90
30339;BME280;795;49.296;11.348;2022-12-01T14:11:23;96763.38;;;6.22;98.79
30339;BME280;795;49.296;11.348;2022-12-01T14:14:02;96757.75;;;5.94;100.00
30339;BME280;795;49.296;11.348;2022-12-01T14:16:57;96749.06;;;5.92;100.00
30339;BME280;795;49.296;11.348;2022-12-01T14:19:49;96752.59;;;5.93;100.00
30339;BME280;795;49.296;11.348;2022-12-01T14:22:41;96751.44;;;5.86;100.00
30339;BME280;795;49.296;11.348;2022-12-01T14:25:27;96748.88;;;5.84;100.00
30339;BME280;795;49.296;11.348;2022-12-01T14:28:01;96754.78;;;5.88;100.00
30339;BME280;795;49.296;11.348;2022-12-01T14:33:47;96747.88;;;5.65;100.00
30339;BME280;795;49.296;11.348;2022-12-01T14:39:00;96751.47;;;5.54;100.00
30339;BME280;795;49.296;11.348;2022-12-01T14:41:44;96751.34;;;5.35;100.00
30339;BME280;795;49.296;11.348;2022-12-01T14:50:17;96753.19;;;5.23;100.00
30339;BME280;795;49.296;11.348;2022-12-01T14:53:03;96752.00;;;5.16;100.00
30339;BME280;795;49.296;11.348;2022-12-01T14:55:48;96748.88;;;5.11;100.00
30339;BME280;795;49.296;11.348;2022-12-01T14:58:30;96757.59;;;5.13;100.00
30339;BME280;795;49.296;11.348;2022-12-01T15:01:11;96755.97;;;5.01;100.00
30339;BME280;795;49.296;11.348;2022-12-01T15:03:53;96742.53;;;4.92;100.00
30339;BME280;795;49.296;11.348;2022-12-01T15:06:26;96746.19;;;4.91;100.00
30339;BME280;795;49.296;11.348;2022-12-01T15:09:19;96750.28;;;4.95;100.00
30339;BME280;795;49.296;11.348;2022-12-01T15:12:05;96746.91;;;4.93;100.00
30339;BME280;795;49.296;11.348;2022-12-01T15:14:47;96747.16;;;4.90;100.00
30339;BME280;795;49.296;11.348;2022-12-01T15:17:34;96752.13;;;4.83;100.00
30339;BME280;795;49.296;11.348;2022-12-01T15:20:30;96743.06;;;4.86;100.00
30339;BME280;795;49.296;11.348;2022-12-01T15:23:01;96746.19;;;4.91;100.00
30339;BME280;795;49.296;11.348;2022-12-01T15:25:33;96748.16;;;4.89;100.00
30339;BME280;795;49.296;11.348;2022-12-01T15:28:15;96750.28;;;4.95;100.00
30339;BME280;795;49.296;11.348;2022-12-01T15:30:49;96748.16;;;4.89;100.00
30339;BME280;795;49.296;11.348;2022-12-01T15:33:28;96745.72;;;4.86;100.00
30339;BME280;795;49.296;11.348;2022-12-01T15:36:04;96752.03;;;4.74;100.00
30339;BME280;795;49.296;11.348;2022-12-01T15:38:37;96760.25;;;4.82;100.00
30339;BME280;795;49.296;11.348;2022-12-01T15:41:18;96758.31;;;4.72;100.00